Time;durP1;ratioP1;P1;durP2;ratioP2;P2;SDS_P1;SDS_P2;PMS_P1;PMS_P2;Temp;Humidity;BMP_temperature;BMP_pressure;BME280_temperature;BME280_humidity;BME280_pressure;Samples;Min_cycle;Max_cycle;Signal;HPM_P1;HPM_P2
2023/03/20 00:00:21;;;;;;;71.88;51.55;;;15.20;79.80;;;;;;4929134;28;90746;-67
2023/03/20 00:02:46;;;;;;;71.28;51.28;;;15.30;80.00;;;;;;4931609;28;89503;-66
2023/03/20 00:05:23;;;;;;;72.00;51.30;;;15.20;79.40;;;;;;4928363;28;89470;-65
2023/03/20 00:07:50;;;;;;;70.88;51.72;;;15.20;79.00;;;;;;4926316;28;89574;-66
2023/03/20 00:10:20;;;;;;;71.63;51.47;;;15.10;79.10;;;;;;4937623;28;88618;-66
2023/03/20 00:12:48;;;;;;;70.47;51.13;;;15.00;80.00;;;;;;4922052;28;90364;-62
2023/03/20 00:15:24;;;;;;;71.75;51.28;;;15.10;79.10;;;;;;4927704;28;93661;-66
2023/03/20 00:17:51;;;;;;;70.53;51.10;;;15.00;79.70;;;;;;4921427;28;92697;-66
2023/03/20 00:20:16;;;;;;;71.53;51.58;;;15.10;79.00;;;;;;4923506;28;90226;-65
2023/03/20 00:22:42;;;;;;;74.30;52.25;;;15.20;79.20;;;;;;4925758;28;91209;-65
2023/03/20 00:25:16;;;;;;;72.72;51.05;;;15.10;79.00;;;;;;4922330;28;89636;-65
2023/03/20 00:27:43;;;;;;;70.90;51.45;;;15.10;79.20;;;;;;4925950;28;89575;-66
2023/03/20 00:30:21;;;;;;;72.68;51.58;;;15.10;78.80;;;;;;4922595;28;89083;-66
2023/03/20 00:32:50;;;;;;;71.20;51.30;;;15.00;79.10;;;;;;4931191;28;89942;-66
2023/03/20 00:35:26;;;;;;;71.90;51.35;;;15.10;78.80;;;;;;4928545;28;89001;-65
2023/03/20 00:37:53;;;;;;;70.18;50.97;;;15.00;79.10;;;;;;4924674;28;89486;-63
2023/03/20 00:40:19;;;;;;;71.50;51.28;;;15.00;78.90;;;;;;4926817;28;91507;-66
2023/03/20 00:42:49;;;;;;;71.32;51.42;;;15.00;79.10;;;;;;4922571;28;92833;-60
2023/03/20 00:45:19;;;;;;;72.00;51.63;;;15.00;78.50;;;;;;4923221;28;89672;-66
2023/03/20 00:47:48;;;;;;;70.28;51.08;;;15.00;78.90;;;;;;4922114;28;89278;-65
2023/03/20 00:50:23;;;;;;;73.15;51.55;;;15.00;78.40;;;;;;4921624;28;90997;-66
2023/03/20 00:52:50;;;;;;;72.88;51.25;;;15.00;78.80;;;;;;4923096;28;90743;-66
2023/03/20 00:55:17;;;;;;;72.30;51.70;;;14.90;78.90;;;;;;4926073;28;90334;-67
2023/03/20 00:58:04;;;;;;;72.38;51.30;;;14.90;78.40;;;;;;4922296;28;92394;-65
2023/03/20 01:00:42;;;;;;;75.15;51.70;;;14.90;78.80;;;;;;4923994;28;89961;-67
2023/03/20 01:03:15;;;;;;;72.55;51.50;;;14.90;78.50;;;;;;4926561;28;91382;-66
2023/03/20 01:05:41;;;;;;;72.40;51.50;;;14.90;78.90;;;;;;4929071;28;89537;-66
2023/03/20 01:08:19;;;;;;;72.38;51.08;;;14.90;78.60;;;;;;4927743;28;92442;-67
2023/03/20 01:10:47;;;;;;;74.32;51.83;;;14.90;78.30;;;;;;4923822;28;90196;-62
2023/03/20 01:13:25;;;;;;;71.90;51.88;;;14.80;78.70;;;;;;4928390;28;89014;-67
2023/03/20 01:15:52;;;;;;;71.15;51.22;;;14.80;78.50;;;;;;4924647;28;90237;-66
2023/03/20 01:18:20;;;;;;;71.18;50.88;;;14.80;78.90;;;;;;4923633;28;89206;-67
2023/03/20 01:20:47;;;;;;;70.60;51.17;;;14.80;78.70;;;;;;4923409;28;89286;-64
2023/03/20 01:23:13;;;;;;;70.40;51.08;;;14.80;78.20;;;;;;4927069;28;91108;-65
2023/03/20 01:25:39;;;;;;;70.75;50.72;;;14.80;78.50;;;;;;4918113;28;89934;-66
2023/03/20 01:28:20;;;;;;;70.65;51.25;;;14.80;78.40;;;;;;4920775;28;90691;-65
2023/03/20 01:30:46;;;;;;;68.90;50.67;;;14.80;78.50;;;;;;4925518;28;90505;-65
2023/03/20 01:33:18;;;;;;;69.30;50.85;;;14.80;78.10;;;;;;4924002;28;91996;-66
2023/03/20 01:35:45;;;;;;;70.53;50.83;;;14.70;78.30;;;;;;4923260;28;89308;-66
2023/03/20 01:38:25;;;;;;;70.93;50.67;;;14.70;78.30;;;;;;4927498;28;90248;-66
2023/03/20 01:40:58;;;;;;;72.53;51.00;;;14.80;78.30;;;;;;4917674;28;94165;-63
2023/03/20 01:43:26;;;;;;;70.05;50.70;;;14.70;78.10;;;;;;4924344;28;89287;-62
2023/03/20 01:46:02;;;;;;;69.20;50.72;;;14.80;78.00;;;;;;4921700;28;90166;-66
2023/03/20 01:48:50;;;;;;;70.75;50.85;;;14.80;77.90;;;;;;4922367;28;90650;-67
2023/03/20 01:51:16;;;;;;;70.32;51.05;;;14.70;78.00;;;;;;4920930;28;88612;-65
2023/03/20 01:53:44;;;;;;;69.47;50.60;;;14.70;77.80;;;;;;4918469;28;92601;-65
2023/03/20 01:56:12;;;;;;;70.93;50.92;;;14.70;77.60;;;;;;4927885;28;89921;-65
2023/03/20 01:58:42;;;;;;;70.65;50.85;;;14.70;77.80;;;;;;4921915;28;90212;-61
2023/03/20 02:01:12;;;;;;;70.97;50.95;;;14.70;77.70;;;;;;4911561;28;91050;-62
2023/03/20 02:03:41;;;;;;;69.65;50.63;;;14.70;77.90;;;;;;4906765;28;91096;-67
2023/03/20 02:06:08;;;;;;;73.03;50.75;;;14.70;77.50;;;;;;4914497;28;90834;-66
2023/03/20 02:08:40;;;;;;;70.15;50.97;;;14.60;77.60;;;;;;4918450;28;90914;-61
2023/03/20 02:11:07;;;;;;;72.05;50.88;;;14.60;77.60;;;;;;4911759;28;90081;-66
2023/03/20 02:13:34;;;;;;;70.13;51.30;;;14.60;77.80;;;;;;4934375;28;89176;-67
2023/03/20 02:16:06;;;;;;;69.72;50.53;;;14.60;77.70;;;;;;4926402;28;89343;-66
2023/03/20 02:18:33;;;;;;;68.57;50.00;;;14.60;78.70;;;;;;4923317;28;90157;-60
2023/03/20 02:21:40;;;;;;;70.20;50.83;;;14.60;77.70;;;;;;4925062;28;90115;-64
2023/03/20 02:24:33;;;;;;;69.78;50.95;;;14.60;77.40;;;;;;4924244;28;91274;-66
2023/03/20 02:27:02;;;;;;;71.07;50.15;;;14.60;77.80;;;;;;4925451;28;89430;-66
2023/03/20 02:29:56;;;;;;;69.93;50.58;;;14.60;77.40;;;;;;4926413;28;90833;-67
2023/03/20 02:32:58;;;;;;;70.32;51.05;;;14.60;77.30;;;;;;4929782;28;89629;-65
2023/03/20 02:35:45;;;;;;;68.68;50.75;;;14.50;77.30;;;;;;4928157;28;89807;-64
2023/03/20 02:38:31;;;;;;;70.30;51.05;;;14.60;77.50;;;;;;4928697;28;90123;-67
2023/03/20 02:41:11;;;;;;;70.55;50.85;;;14.50;77.50;;;;;;4919638;28;91016;-62
2023/03/20 02:43:56;;;;;;;68.90;51.13;;;14.60;77.30;;;;;;4921001;28;89221;-66
2023/03/20 02:46:37;;;;;;;70.20;50.95;;;14.60;77.10;;;;;;4918767;28;92411;-65
2023/03/20 02:49:12;;;;;;;68.00;50.70;;;14.60;76.80;;;;;;4914891;28;90239;-67
2023/03/20 02:51:57;;;;;;;70.72;51.08;;;14.50;77.10;;;;;;4917543;28;91558;-67
2023/03/20 02:54:32;;;;;;;69.72;51.25;;;14.60;76.50;;;;;;4927203;28;90496;-55
2023/03/20 02:57:05;;;;;;;69.30;50.72;;;14.60;77.00;;;;;;4926539;28;90239;-61
2023/03/20 02:59:40;;;;;;;69.65;50.63;;;14.50;76.60;;;;;;4933262;28;90048;-64
2023/03/20 03:02:13;;;;;;;70.90;51.08;;;14.40;77.00;;;;;;4926144;28;90355;-66
2023/03/20 03:04:43;;;;;;;71.18;51.15;;;14.50;77.10;;;;;;4925778;28;90035;-68
2023/03/20 03:07:11;;;;;;;71.95;51.03;;;14.40;76.90;;;;;;4924343;28;89314;-66
2023/03/20 03:09:45;;;;;;;69.20;50.47;;;14.40;77.10;;;;;;4937597;28;89238;-67
2023/03/20 03:12:26;;;;;;;70.63;51.05;;;14.40;76.50;;;;;;4925812;28;89290;-59
2023/03/20 03:15:05;;;;;;;68.33;50.07;;;14.40;77.00;;;;;;4930223;28;90535;-67
2023/03/20 03:17:35;;;;;;;70.47;50.70;;;14.40;76.60;;;;;;4924945;28;90412;-67
2023/03/20 03:20:12;;;;;;;70.47;50.47;;;14.40;76.60;;;;;;4922259;28;90495;-65
2023/03/20 03:22:38;;;;;;;69.03;50.88;;;14.40;76.80;;;;;;4923314;28;89478;-61
2023/03/20 03:25:05;;;;;;;69.53;51.05;;;14.40;76.70;;;;;;4923147;28;89795;-64
2023/03/20 03:27:39;;;;;;;69.70;50.33;;;14.40;76.80;;;;;;4923534;28;89375;-66
2023/03/20 03:30:04;;;;;;;68.82;49.97;;;14.30;76.70;;;;;;4915963;28;90242;-65
2023/03/20 03:33:00;;;;;;;73.78;51.10;;;14.30;76.80;;;;;;4913518;28;93575;-66
2023/03/20 03:35:26;;;;;;;69.10;50.78;;;14.30;76.50;;;;;;4919052;28;89765;-66
2023/03/20 03:38:18;;;;;;;70.53;50.50;;;14.30;76.50;;;;;;4925065;28;90461;-62
2023/03/20 03:40:51;;;;;;;70.20;50.65;;;14.30;76.30;;;;;;4920810;28;90174;-67
2023/03/20 03:43:32;;;;;;;68.78;50.97;;;14.30;76.80;;;;;;4928331;28;91839;-67
2023/03/20 03:46:08;;;;;;;69.30;50.35;;;14.30;76.30;;;;;;4923448;28;94452;-67
2023/03/20 03:48:46;;;;;;;68.97;50.58;;;14.30;76.20;;;;;;4917920;28;93481;-65
2023/03/20 03:51:16;;;;;;;70.45;50.55;;;14.30;76.40;;;;;;4920645;28;90958;-65
2023/03/20 03:53:49;;;;;;;70.10;50.87;;;14.30;76.50;;;;;;4933395;28;89847;-66
2023/03/20 03:56:19;;;;;;;69.78;51.00;;;14.30;76.20;;;;;;4928312;28;90310;-66
2023/03/20 03:58:49;;;;;;;69.90;50.67;;;14.30;76.60;;;;;;4924928;28;91646;-66
2023/03/20 04:01:17;;;;;;;69.53;50.60;;;14.30;76.50;;;;;;4916119;28;89543;-66
2023/03/20 04:03:47;;;;;;;69.57;50.90;;;14.30;76.00;;;;;;4928720;28;89363;-66
2023/03/20 04:06:15;;;;;;;70.43;50.80;;;14.20;76.20;;;;;;4920478;28;89591;-67
2023/03/20 04:08:41;;;;;;;68.00;50.58;;;14.30;76.60;;;;;;4931629;28;90444;-64
2023/03/20 04:11:19;;;;;;;69.22;50.35;;;14.30;76.30;;;;;;4927377;28;90251;-66
2023/03/20 04:13:49;;;;;;;68.90;50.53;;;14.20;76.40;;;;;;4928372;28;89906;-67
2023/03/20 04:16:16;;;;;;;68.15;50.03;;;14.20;76.40;;;;;;4924760;28;89579;-67
2023/03/20 04:18:44;;;;;;;67.38;50.03;;;14.20;76.20;;;;;;4931816;28;89236;-67
2023/03/20 04:21:10;;;;;;;68.63;50.10;;;14.20;76.60;;;;;;4925839;28;91452;-68
2023/03/20 04:23:35;;;;;;;68.75;50.78;;;14.20;76.40;;;;;;4928555;28;89829;-68
2023/03/20 04:26:02;;;;;;;70.22;50.50;;;14.20;76.10;;;;;;4924319;28;89806;-58
2023/03/20 04:28:28;;;;;;;69.40;50.67;;;14.20;76.00;;;;;;4930057;28;88867;-63
2023/03/20 04:30:55;;;;;;;68.95;50.20;;;14.20;75.90;;;;;;4919654;28;91726;-66
2023/03/20 04:33:22;;;;;;;69.55;50.08;;;14.10;76.20;;;;;;4914218;28;90628;-67
2023/03/20 04:35:48;;;;;;;68.30;50.25;;;14.10;76.20;;;;;;4925573;28;92851;-60
2023/03/20 04:38:15;;;;;;;72.00;50.95;;;14.20;76.20;;;;;;4924151;28;90794;-67
2023/03/20 04:40:41;;;;;;;69.07;50.28;;;14.10;76.00;;;;;;4923943;28;89503;-67
2023/03/20 04:43:06;;;;;;;67.95;50.53;;;14.10;76.10;;;;;;4922963;28;90127;-68
2023/03/20 04:45:32;;;;;;;71.18;50.30;;;14.10;75.90;;;;;;4930095;28;89536;-68
2023/03/20 04:47:57;;;;;;;69.30;50.47;;;14.00;76.20;;;;;;4918768;28;90232;-64
2023/03/20 04:50:23;;;;;;;71.03;50.72;;;14.10;76.30;;;;;;4928060;28;87988;-62
2023/03/20 04:52:49;;;;;;;68.63;50.83;;;14.10;75.90;;;;;;4927677;28;90020;-67
2023/03/20 04:55:15;;;;;;;69.50;50.25;;;14.10;75.80;;;;;;4922384;28;89641;-65
2023/03/20 04:57:40;;;;;;;67.88;50.03;;;14.10;75.90;;;;;;4917809;28;91125;-67
2023/03/20 05:00:07;;;;;;;69.22;50.95;;;14.10;76.10;;;;;;4920649;28;89025;-60
2023/03/20 05:02:32;;;;;;;71.90;50.53;;;14.10;75.90;;;;;;4916562;28;90864;-66
2023/03/20 05:04:58;;;;;;;67.22;50.22;;;14.10;75.80;;;;;;4926546;28;89195;-67
2023/03/20 05:07:24;;;;;;;67.00;49.92;;;14.00;76.20;;;;;;4926736;28;95491;-67
2023/03/20 05:09:49;;;;;;;68.65;50.22;;;14.10;75.80;;;;;;4922049;28;91875;-58
2023/03/20 05:12:15;;;;;;;69.38;50.42;;;14.10;75.60;;;;;;4932207;28;90254;-67
2023/03/20 05:14:41;;;;;;;67.72;50.22;;;14.10;75.90;;;;;;4926938;28;90084;-66
2023/03/20 05:17:07;;;;;;;69.22;50.42;;;14.10;76.00;;;;;;4915497;28;90296;-67
2023/03/20 05:19:32;;;;;;;71.82;50.05;;;14.00;75.80;;;;;;4925799;28;94851;-61
2023/03/20 05:21:58;;;;;;;67.80;50.03;;;14.10;75.80;;;;;;4929223;28;91069;-67
2023/03/20 05:24:24;;;;;;;67.53;49.60;;;14.10;76.00;;;;;;4923484;28;89602;-67
2023/03/20 05:26:50;;;;;;;67.75;49.83;;;14.10;75.80;;;;;;4927683;28;89060;-66
2023/03/20 05:29:15;;;;;;;67.07;50.00;;;14.10;75.60;;;;;;4926976;28;93049;-66
2023/03/20 05:31:41;;;;;;;68.60;50.33;;;14.10;75.90;;;;;;4932449;28;89341;-66
2023/03/20 05:34:06;;;;;;;68.47;49.83;;;14.10;75.70;;;;;;4922629;28;89310;-67
2023/03/20 05:36:32;;;;;;;68.85;50.13;;;14.00;75.80;;;;;;4925963;28;89709;-67
2023/03/20 05:38:58;;;;;;;71.45;50.05;;;14.00;75.90;;;;;;4929314;28;88228;-67
2023/03/20 05:41:23;;;;;;;67.32;49.60;;;14.00;75.90;;;;;;4920225;28;89553;-67
2023/03/20 05:43:49;;;;;;;70.18;50.72;;;14.10;75.50;;;;;;4923351;28;89650;-63
2023/03/20 05:46:15;;;;;;;69.97;50.35;;;14.10;75.70;;;;;;4928738;28;91759;-68
2023/03/20 05:48:40;;;;;;;69.25;49.72;;;14.00;75.60;;;;;;4934919;28;88958;-68
2023/03/20 05:51:06;;;;;;;67.32;50.00;;;14.00;76.00;;;;;;4921280;28;89552;-67
2023/03/20 05:53:32;;;;;;;70.20;50.25;;;14.00;76.00;;;;;;4922590;28;89094;-63
2023/03/20 05:55:58;;;;;;;70.40;50.30;;;14.00;75.60;;;;;;4919627;28;90456;-62
2023/03/20 05:58:23;;;;;;;71.65;49.90;;;13.90;75.60;;;;;;4926326;28;89809;-67
2023/03/20 06:00:49;;;;;;;68.35;49.75;;;13.90;75.70;;;;;;4930189;28;89383;-68
2023/03/20 06:03:15;;;;;;;67.47;50.25;;;13.90;76.00;;;;;;4927308;28;88601;-60
2023/03/20 06:05:41;;;;;;;68.32;49.90;;;13.90;76.30;;;;;;4927170;28;89174;-67
2023/03/20 06:08:06;;;;;;;71.07;50.33;;;13.90;76.90;;;;;;4930101;28;89261;-67
2023/03/20 06:10:32;;;;;;;70.10;50.25;;;14.00;77.30;;;;;;4914051;28;91166;-68
2023/03/20 06:12:59;;;;;;;68.43;49.58;;;14.10;77.40;;;;;;4926121;28;90632;-67
2023/03/20 06:15:27;;;;;;;68.88;49.90;;;14.20;77.10;;;;;;4924688;28;90464;-64
2023/03/20 06:17:53;;;;;;;69.88;50.15;;;14.20;76.70;;;;;;4924127;28;89297;-66
2023/03/20 06:20:19;;;;;;;69.05;49.67;;;14.30;76.30;;;;;;4921448;28;92105;-65
2023/03/20 06:22:45;;;;;;;68.10;50.00;;;14.40;76.20;;;;;;4925168;28;91665;-67
2023/03/20 06:25:11;;;;;;;69.60;50.45;;;14.60;75.80;;;;;;4915157;28;90665;-66
2023/03/20 06:27:37;;;;;;;71.25;50.47;;;14.60;75.40;;;;;;4923417;28;91180;-66
2023/03/20 06:30:03;;;;;;;68.57;50.38;;;14.60;75.20;;;;;;4924957;28;89938;-67
2023/03/20 06:32:30;;;;;;;70.45;50.35;;;14.60;75.30;;;;;;4923754;28;96354;-64
2023/03/20 06:34:55;;;;;;;69.20;50.22;;;14.60;75.10;;;;;;4923452;28;91515;-66
2023/03/20 06:37:21;;;;;;;72.78;50.50;;;14.70;74.90;;;;;;4924050;28;89669;-60
2023/03/20 06:39:47;;;;;;;70.78;50.40;;;14.70;75.10;;;;;;4924993;28;90670;-68
2023/03/20 06:42:12;;;;;;;71.18;50.92;;;14.80;74.70;;;;;;4918732;28;88751;-67
2023/03/20 06:44:49;;;;;;;69.75;50.47;;;14.90;75.00;;;;;;4927438;28;89892;-63
2023/03/20 06:47:15;;;;;;;70.70;50.70;;;14.90;74.70;;;;;;4922812;28;89221;-66
2023/03/20 06:49:42;;;;;;;70.20;50.10;;;14.90;74.80;;;;;;4929824;28;90990;-67
2023/03/20 06:52:17;;;;;;;70.30;50.20;;;14.90;75.10;;;;;;4919658;28;92884;-65
2023/03/20 06:54:43;;;;;;;73.57;50.55;;;14.90;75.10;;;;;;4915187;28;89383;-67
2023/03/20 06:57:10;;;;;;;69.00;49.97;;;14.90;74.80;;;;;;4923395;28;90301;-66
2023/03/20 06:59:36;;;;;;;71.90;50.45;;;15.00;74.60;;;;;;4926113;28;94043;-58
2023/03/20 07:02:02;;;;;;;70.85;50.45;;;15.00;75.10;;;;;;4919574;28;92705;-67
2023/03/20 07:04:28;;;;;;;70.65;50.30;;;15.00;75.20;;;;;;4920210;28;90403;-67
2023/03/20 07:06:54;;;;;;;72.75;50.63;;;15.00;75.20;;;;;;4929767;28;95522;-67
2023/03/20 07:09:21;;;;;;;70.20;50.67;;;15.00;75.20;;;;;;4929087;28;89436;-64
2023/03/20 07:11:47;;;;;;;72.30;50.10;;;15.10;75.20;;;;;;4920902;28;92599;-66
2023/03/20 07:14:13;;;;;;;70.00;50.10;;;15.10;75.20;;;;;;4925770;28;89050;-67
2023/03/20 07:16:39;;;;;;;70.95;51.15;;;15.10;75.20;;;;;;4929768;28;88510;-63
2023/03/20 07:19:05;;;;;;;71.85;50.45;;;15.10;74.80;;;;;;4930341;28;90380;-66
2023/03/20 07:21:31;;;;;;;72.15;50.53;;;15.10;74.70;;;;;;4917847;28;90738;-64
2023/03/20 07:23:56;;;;;;;72.10;50.80;;;15.10;74.40;;;;;;4925829;28;90131;-66
2023/03/20 07:26:22;;;;;;;72.88;50.42;;;15.10;74.40;;;;;;4924615;28;90022;-63
2023/03/20 07:28:48;;;;;;;74.10;50.22;;;15.10;74.30;;;;;;4920206;28;90558;-66
2023/03/20 07:31:22;;;;;;;71.85;50.05;;;15.20;74.70;;;;;;4920621;28;90824;-62
2023/03/20 07:33:48;;;;;;;72.55;50.40;;;15.20;74.40;;;;;;4920860;28;91766;-67
2023/03/20 07:36:14;;;;;;;75.00;50.55;;;15.20;74.60;;;;;;4920924;28;89548;-65
2023/03/20 07:38:40;;;;;;;70.68;50.15;;;15.30;74.20;;;;;;4920827;28;90965;-66
2023/03/20 07:41:06;;;;;;;70.57;50.13;;;15.50;72.80;;;;;;4934319;28;90333;-65
2023/03/20 07:43:32;;;;;;;73.80;50.65;;;15.60;72.50;;;;;;4927637;28;89778;-63
2023/03/20 07:46:01;;;;;;;72.15;50.65;;;15.60;72.30;;;;;;4924136;28;89929;-65
2023/03/20 07:48:27;;;;;;;71.38;50.55;;;15.70;71.90;;;;;;4914068;28;90625;-65
2023/03/20 07:50:52;;;;;;;74.28;50.20;;;15.70;71.80;;;;;;4921625;28;89755;-63
2023/03/20 07:53:18;;;;;;;71.50;50.35;;;15.80;71.80;;;;;;4925428;28;90077;-65
2023/03/20 07:55:44;;;;;;;72.00;50.28;;;15.70;71.40;;;;;;4928956;28;90153;-63
2023/03/20 07:58:10;;;;;;;72.38;50.30;;;15.80;71.00;;;;;;4919925;28;89311;-64
2023/03/20 08:00:35;;;;;;;74.35;50.97;;;15.80;71.20;;;;;;4927159;28;91501;-62
2023/03/20 08:03:01;;;;;;;72.50;50.72;;;15.80;70.80;;;;;;4926668;28;89396;-64
2023/03/20 08:05:26;;;;;;;73.22;50.63;;;15.90;70.90;;;;;;4920558;28;88553;-63
2023/03/20 08:07:52;;;;;;;73.28;50.00;;;15.90;70.40;;;;;;4924468;28;90808;-64
2023/03/20 08:10:18;;;;;;;72.25;50.63;;;15.90;70.50;;;;;;4922471;28;89035;-64
2023/03/20 08:12:44;;;;;;;73.07;50.67;;;16.00;70.20;;;;;;4930286;28;90483;-65
2023/03/20 08:15:10;;;;;;;73.30;50.40;;;16.00;70.40;;;;;;4929108;28;90009;-64
2023/03/20 08:17:36;;;;;;;71.50;50.40;;;16.00;70.30;;;;;;4927668;28;90113;-64
2023/03/20 08:20:02;;;;;;;71.20;50.20;;;16.00;70.30;;;;;;4930170;28;89349;-64
2023/03/20 08:22:28;;;;;;;71.20;50.28;;;16.00;70.00;;;;;;4925408;28;90148;-65
2023/03/20 08:24:53;;;;;;;72.47;50.85;;;16.10;70.00;;;;;;4928802;28;91438;-64
2023/03/20 08:27:19;;;;;;;72.32;50.45;;;16.10;69.50;;;;;;4930825;28;89517;-63
2023/03/20 08:29:45;;;;;;;75.20;50.67;;;16.10;70.80;;;;;;4922953;28;89780;-64
2023/03/20 08:32:11;;;;;;;71.00;50.38;;;16.10;69.50;;;;;;4923938;28;90100;-64
2023/03/20 08:34:36;;;;;;;71.55;50.67;;;16.10;69.50;;;;;;4933356;28;89550;-63
2023/03/20 08:37:03;;;;;;;73.15;50.60;;;16.20;69.40;;;;;;4938444;28;91439;-65
2023/03/20 08:39:29;;;;;;;71.47;50.58;;;16.20;69.00;;;;;;4923342;28;90843;-65
2023/03/20 08:41:55;;;;;;;72.57;50.50;;;16.20;69.30;;;;;;4926806;28;89406;-63
2023/03/20 08:44:20;;;;;;;73.10;50.55;;;16.30;69.00;;;;;;4932201;28;89065;-65
2023/03/20 08:46:46;;;;;;;72.70;50.38;;;16.30;68.70;;;;;;4922244;28;92341;-64
2023/03/20 08:49:12;;;;;;;77.28;50.90;;;16.30;68.80;;;;;;4925874;28;90532;-65
2023/03/20 08:51:38;;;;;;;72.78;50.92;;;16.30;69.10;;;;;;4937130;28;90401;-65
2023/03/20 08:54:03;;;;;;;73.38;50.55;;;16.30;68.70;;;;;;4931154;28;88931;-63
2023/03/20 08:56:29;;;;;;;71.40;50.45;;;16.30;68.60;;;;;;4926513;28;89782;-64
2023/03/20 08:58:55;;;;;;;72.75;50.65;;;16.30;68.70;;;;;;4925707;28;90552;-63
2023/03/20 09:01:20;;;;;;;72.97;50.85;;;16.40;68.60;;;;;;4928579;28;91045;-65
2023/03/20 09:03:46;;;;;;;73.18;50.55;;;16.40;68.50;;;;;;4924281;28;89131;-64
2023/03/20 09:06:12;;;;;;;73.53;50.55;;;16.40;68.40;;;;;;4925113;28;90763;-65
2023/03/20 09:08:38;;;;;;;73.22;50.58;;;16.50;68.30;;;;;;4929560;28;89361;-63
2023/03/20 09:11:04;;;;;;;74.60;50.65;;;16.50;68.50;;;;;;4930533;28;90786;-65
2023/03/20 09:13:30;;;;;;;74.13;50.67;;;16.50;68.40;;;;;;4939915;28;89509;-64
2023/03/20 09:15:56;;;;;;;74.45;50.42;;;16.50;68.10;;;;;;4922150;28;89720;-65
2023/03/20 09:18:22;;;;;;;74.70;50.88;;;16.60;68.10;;;;;;4931258;28;89412;-65
2023/03/20 09:20:48;;;;;;;72.60;50.55;;;16.70;67.90;;;;;;4928468;28;90474;-65
2023/03/20 09:23:14;;;;;;;72.57;50.78;;;16.70;67.60;;;;;;4925366;28;90996;-64
2023/03/20 09:25:40;;;;;;;72.65;50.90;;;16.70;67.60;;;;;;4927244;28;90395;-64
2023/03/20 09:28:05;;;;;;;71.75;50.22;;;16.70;67.60;;;;;;4925035;28;89656;-63
2023/03/20 09:30:31;;;;;;;73.30;50.60;;;16.60;67.80;;;;;;4924760;28;92876;-65
2023/03/20 09:32:57;;;;;;;74.63;51.10;;;16.60;67.70;;;;;;4935971;28;90441;-63
2023/03/20 09:35:22;;;;;;;74.72;50.80;;;16.60;67.60;;;;;;4926708;28;89752;-65
2023/03/20 09:37:48;;;;;;;73.80;50.55;;;16.70;68.00;;;;;;4928924;28;90097;-63
2023/03/20 09:40:25;;;;;;;71.43;50.55;;;16.60;67.70;;;;;;4919263;28;89201;-65
2023/03/20 09:43:02;;;;;;;75.03;50.75;;;16.60;67.80;;;;;;4925465;28;89249;-64
2023/03/20 09:46:06;;;;;;;73.20;50.42;;;16.60;67.50;;;;;;4927099;28;91011;-65
2023/03/20 09:48:40;;;;;;;72.30;50.42;;;16.60;67.50;;;;;;4926427;28;89514;-65
2023/03/20 09:51:16;;;;;;;72.45;50.33;;;16.60;67.70;;;;;;4923883;28;90090;-63
2023/03/20 09:54:20;;;;;;;73.97;50.50;;;16.60;67.70;;;;;;4930657;28;90269;-65
2023/03/20 09:56:47;;;;;;;72.60;50.42;;;16.60;67.70;;;;;;4926669;28;93170;-62
2023/03/20 09:59:16;;;;;;;74.00;50.60;;;16.80;67.40;;;;;;4930930;28;90454;-65
2023/03/20 10:01:49;;;;;;;72.00;50.65;;;16.80;67.10;;;;;;4923788;28;89855;-65
2023/03/20 10:04:15;;;;;;;73.28;50.25;;;16.80;67.10;;;;;;4921149;28;89344;-65
2023/03/20 10:06:42;;;;;;;73.75;50.83;;;16.80;67.00;;;;;;4929123;28;90181;-64
2023/03/20 10:09:21;;;;;;;73.00;50.78;;;16.90;66.90;;;;;;4927562;28;89808;-65
2023/03/20 10:12:07;;;;;;;73.35;50.80;;;16.90;66.60;;;;;;4927176;28;89523;-64
2023/03/20 10:14:51;;;;;;;72.65;50.72;;;17.00;66.60;;;;;;4928352;28;89644;-64
2023/03/20 10:17:27;;;;;;;76.22;51.53;;;17.00;67.10;;;;;;4926916;28;91770;-65
2023/03/20 10:20:01;;;;;;;73.20;50.75;;;17.00;66.10;;;;;;4920347;28;94179;-64
2023/03/20 10:22:35;;;;;;;74.65;50.95;;;17.00;66.10;;;;;;4920153;28;94867;-65
2023/03/20 10:25:04;;;;;;;74.85;50.88;;;17.10;65.90;;;;;;4925965;28;89748;-65
2023/03/20 10:27:33;;;;;;;74.75;51.17;;;17.10;65.80;;;;;;4926679;28;89391;-65
2023/03/20 10:30:13;;;;;;;74.05;51.30;;;17.10;65.50;;;;;;4937402;28;89480;-64
2023/03/20 10:33:00;;;;;;;75.35;51.55;;;17.20;65.30;;;;;;4922318;28;90061;-65
2023/03/20 10:35:52;;;;;;;75.60;51.05;;;17.20;65.30;;;;;;4922164;28;89044;-65
2023/03/20 10:38:38;;;;;;;74.78;51.25;;;17.20;65.20;;;;;;4916402;28;89657;-65
2023/03/20 10:41:12;;;;;;;77.40;51.05;;;17.20;65.30;;;;;;4920870;28;91173;-65
2023/03/20 10:43:42;;;;;;;77.50;50.85;;;17.20;65.00;;;;;;4934241;28;91090;-64
2023/03/20 10:46:22;;;;;;;73.10;50.33;;;17.20;65.10;;;;;;4923803;28;90957;-64
2023/03/20 10:48:57;;;;;;;75.38;51.08;;;17.20;65.10;;;;;;4928584;28;89090;-65
2023/03/20 10:51:37;;;;;;;76.68;51.55;;;17.30;65.20;;;;;;4921204;28;89244;-63
2023/03/20 10:54:06;;;;;;;74.28;51.00;;;17.30;64.90;;;;;;4926405;28;90930;-64
2023/03/20 10:56:38;;;;;;;77.85;51.28;;;17.30;64.70;;;;;;4923172;28;89880;-65
2023/03/20 10:59:23;;;;;;;75.60;51.38;;;17.30;64.40;;;;;;4924370;28;94376;-64
2023/03/20 11:01:49;;;;;;;73.43;50.78;;;17.40;64.60;;;;;;4927714;28;90423;-65
2023/03/20 11:04:14;;;;;;;75.35;51.30;;;17.40;64.60;;;;;;4923639;28;89945;-62
2023/03/20 11:07:05;;;;;;;75.68;51.42;;;17.40;64.50;;;;;;4926226;28;91175;-64
2023/03/20 11:09:32;;;;;;;76.22;51.10;;;17.30;64.60;;;;;;4937052;28;92624;-64
2023/03/20 11:12:00;;;;;;;75.60;51.60;;;17.40;64.70;;;;;;4926307;28;90432;-65
2023/03/20 11:14:36;;;;;;;76.43;51.60;;;17.40;64.60;;;;;;4928126;28;89423;-64
2023/03/20 11:17:05;;;;;;;74.05;50.92;;;17.40;64.40;;;;;;4925798;28;90396;-65
2023/03/20 11:19:36;;;;;;;73.65;51.00;;;17.50;64.60;;;;;;4922840;28;91321;-67
2023/03/20 11:22:08;;;;;;;;;;;17.50;64.30;;;;;;4925822;28;89621;-65
2023/03/20 11:24:40;;;;;;;74.00;51.13;;;17.60;64.20;;;;;;4933382;28;90121;-65
2023/03/20 11:27:17;;;;;;;77.38;50.88;;;17.60;64.20;;;;;;4925603;28;88582;-65
2023/03/20 11:29:47;;;;;;;75.65;51.40;;;17.60;63.90;;;;;;4927997;28;91360;-65
2023/03/20 11:32:27;;;;;;;75.95;51.20;;;17.70;63.90;;;;;;4933895;28;89886;-65
2023/03/20 11:34:57;;;;;;;75.50;51.88;;;17.70;63.90;;;;;;4925480;28;90278;-64
2023/03/20 11:37:28;;;;;;;78.03;51.65;;;17.80;63.70;;;;;;4926057;28;90073;-65
2023/03/20 11:40:09;;;;;;;74.75;51.08;;;17.80;63.80;;;;;;4933182;28;89757;-65
2023/03/20 11:42:36;;;;;;;75.93;51.72;;;17.70;63.90;;;;;;4938837;28;89729;-65
2023/03/20 11:45:14;;;;;;;78.57;51.65;;;17.70;63.70;;;;;;4920539;28;91263;-64
2023/03/20 11:47:41;;;;;;;75.63;51.40;;;17.70;64.00;;;;;;4940707;28;89322;-65
2023/03/20 11:50:28;;;;;;;77.22;51.65;;;17.70;64.10;;;;;;4926657;28;89939;-65
2023/03/20 11:52:54;;;;;;;76.35;51.63;;;17.70;63.90;;;;;;4925760;28;88975;-65
2023/03/20 11:55:28;;;;;;;74.70;51.10;;;17.80;63.70;;;;;;4935172;28;89907;-65
2023/03/20 11:58:05;;;;;;;75.90;51.40;;;17.90;63.50;;;;;;4922068;28;89501;-62
2023/03/20 12:00:41;;;;;;;75.78;51.42;;;17.80;63.60;;;;;;4924495;28;94767;-64
2023/03/20 12:03:39;;;;;;;77.75;51.60;;;17.90;63.80;;;;;;4940623;28;89594;-65
2023/03/20 12:06:06;;;;;;;77.75;51.65;;;17.90;63.50;;;;;;4927690;28;92847;-66
2023/03/20 12:08:37;;;;;;;76.90;51.67;;;17.90;63.50;;;;;;4933559;28;90274;-65
2023/03/20 12:11:17;;;;;;;75.60;51.20;;;18.00;63.40;;;;;;4934976;28;89769;-64
2023/03/20 12:13:46;;;;;;;75.97;51.57;;;18.00;63.30;;;;;;4923506;28;90567;-65
2023/03/20 12:16:16;;;;;;;76.53;51.53;;;18.00;63.30;;;;;;4923726;28;89556;-65
2023/03/20 12:18:56;;;;;;;76.38;51.42;;;18.00;63.20;;;;;;4933255;28;89367;-65
2023/03/20 12:21:51;;;;;;;78.10;51.70;;;17.90;63.20;;;;;;4929759;28;91459;-63
2023/03/20 12:24:35;;;;;;;80.43;52.10;;;17.90;63.30;;;;;;4927780;28;90191;-62
2023/03/20 12:27:22;;;;;;;77.05;51.53;;;17.90;63.10;;;;;;4927234;28;90426;-64
2023/03/20 12:29:57;;;;;;;76.72;51.45;;;17.90;63.50;;;;;;4931439;28;90228;-63
2023/03/20 12:32:29;;;;;;;77.15;51.75;;;17.90;63.70;;;;;;4929846;28;92987;-65
2023/03/20 12:35:43;;;;;;;77.50;51.72;;;18.00;63.30;;;;;;4931332;28;89725;-64
2023/03/20 12:38:30;;;;;;;75.38;51.17;;;18.00;63.20;;;;;;4929826;28;91958;-63
2023/03/20 12:41:15;;;;;;;78.38;51.65;;;18.00;63.40;;;;;;4934547;28;89314;-63
2023/03/20 12:43:59;;;;;;;77.25;51.58;;;18.10;63.30;;;;;;4932146;28;91581;-64
2023/03/20 12:46:53;;;;;;;75.68;51.42;;;18.10;63.40;;;;;;4925154;28;89840;-66